Latest Weather Observations for Merriwa

IDN60801

Issued at 1:32 pm EST Saturday 23 September 2017 (issued every 30 minutes, with the page automatically refreshed every 10 minutes)

About weather observations | Map of weather stations | Latest weather observations for NSW | Other Formats
Station Details ID: 061287 Name: MERRIWA (ROSCOMMON) Lat: -32.19 Lon: 150.17 Height: 375.0 m
Data from the previous 72 hours. | See also: Recent months at Merriwa
Date/Time
EST
Temp
°C
App
Temp
°C
Dew
Point
°C
Rel
Hum
%
Delta-T
°C
Wind Press
QNH
hPa
Press
MSL
hPa
Rain since
9am
mm
Dir  Spd
km/h
Gust
km/h
Spd
kts
Gust
kts
23/01:30pm 31.9 22.7 -1.0 12 16.0 NNW 37 54 20 29 1007.1 1006.7 0.0
23/01:09pm 31.1 22.2 -1.6 12 15.6 NNW 35 57 19 31 1007.5 1007.1 0.0
23/01:00pm 31.6 23.0 -2.4 11 16.1 NNW 33 44 18 24 1007.7 1007.3 0.0
23/12:30pm 31.7 23.3 -1.2 12 15.9 NNW 33 50 18 27 1008.4 1008.1 0.0
23/12:11pm 31.2 23.5 -2.7 11 15.9 NW 28 48 15 26 1008.9 1008.5 0.0
23/12:00pm 31.1 25.6 0.5 14 15.1 NNW 19 24 10 13 1009.1 1008.7 0.0
23/11:30am 29.8 25.4 2.9 18 13.7 SW 15 20 8 11 1010.0 1009.6 0.0
23/11:00am 28.8 26.0 2.9 19 13.2 ENE 7 15 4 8 1009.9 1009.5 0.0
23/10:30am 25.8 23.7 3.7 24 11.1 SSE 4 9 2 5 1010.9 1010.6 0.0
23/10:00am 24.1 21.1 4.0 27 10.1 SE 9 11 5 6 1011.7 1011.3 0.0
23/09:30am 20.8 17.3 3.5 32 8.4 S 11 13 6 7 1012.3 1011.9 0.0
23/09:00am 19.2 16.1 3.4 35 7.6 S 9 13 5 7 1012.9 1012.6 0.0
23/08:30am 15.2 12.1 3.7 46 5.4 SSW 9 13 5 7 1012.9 1012.6 0.0
23/08:00am 15.1 12.4 3.6 46 5.4 S 7 11 4 6 1013.0 1012.7 0.0
23/07:30am 13.2 11.5 4.1 54 4.2 W 2 7 1 4 1012.9 1012.6 0.0
23/07:00am 11.9 8.9 3.9 58 3.7 W 9 13 5 7 1012.8 1012.4 0.0
23/06:30am 9.5 6.5 4.3 70 2.4 W 9 11 5 6 1012.6 1012.2 0.0
23/06:00am 6.5 5.0 3.1 79 1.5 CALM 0 0 0 0 1012.3 1011.9 0.0
23/05:30am 7.0 4.2 2.1 71 2.1 W 6 7 3 4 1012.1 1011.7 0.0
23/05:00am 6.4 4.6 1.5 71 2.0 CALM 0 0 0 0 1012.3 1011.9 0.0
23/04:30am 6.6 3.6 1.1 68 2.2 W 6 7 3 4 1012.2 1011.8 0.0
23/04:00am 6.0 3.8 1.0 70 2.0 WSW 2 7 1 4 1012.2 1011.8 0.0
23/03:30am 6.5 3.5 1.0 68 2.2 WSW 6 7 3 4 1012.2 1011.8 0.0
23/03:00am 8.0 5.2 1.8 65 2.6 N 6 7 3 4 1012.4 1012.0 0.0
23/02:30am 7.9 6.2 1.7 65 2.6 CALM 0 0 0 0 1012.5 1012.1 0.0
23/02:00am 8.2 5.3 1.6 63 2.8 N 6 7 3 4 1012.7 1012.3 0.0
23/01:30am 9.5 7.8 1.7 58 3.3 CALM 0 0 0 0 1013.1 1012.8 0.0
23/01:00am 10.8 9.0 1.4 52 4.0 CALM 0 0 0 0 1013.5 1013.2 0.0
23/12:30am 10.9 7.9 1.7 53 4.0 NW 7 9 4 5 1013.4 1013.1 0.0
23/12:00am 10.7 7.8 1.5 53 3.9 SW 6 7 3 4 1013.5 1013.2 0.0
 
Date/Time
EST
Temp
°C
App
Temp
°C
Dew
Point
°C
Rel
Hum
%
Delta-T
°C
Wind Press
QNH
hPa
Press
MSL
hPa
Rain since
9am
mm
Dir  Spd
km/h
Gust
km/h
Spd
kts
Gust
kts
22/11:30pm 10.7 8.9 1.3 52 4.0 CALM 0 0 0 0 1013.6 1013.3 0.0
22/11:00pm 11.4 9.5 0.8 48 4.5 CALM 0 0 0 0 1013.5 1013.2 0.0
22/10:30pm 13.7 10.5 -0.7 37 6.0 NNW 6 7 3 4 1013.6 1013.3 0.0
22/10:00pm 16.8 13.5 0.0 32 7.4 WNW 7 11 4 6 1013.8 1013.5 0.0
22/09:30pm 16.0 12.1 1.0 36 6.7 W 11 13 6 7 1013.8 1013.5 0.0
22/09:00pm 16.3 12.1 -0.8 31 7.3 N 11 13 6 7 1013.7 1013.4 0.0
22/08:30pm 17.9 13.8 -0.4 29 8.0 N 11 13 6 7 1013.8 1013.5 0.0
22/08:00pm 16.1 11.7 0.3 34 6.9 N 13 15 7 8 1013.6 1013.3 0.0
22/07:30pm 17.7 13.7 0.8 32 7.6 N 11 13 6 7 1013.3 1013.0 0.0
22/07:00pm 18.0 13.6 0.2 30 7.9 N 13 13 7 7 1013.1 1012.8 0.0
22/06:30pm 18.8 15.2 0.4 29 8.3 N 9 11 5 6 1012.7 1012.3 0.0
22/06:00pm 21.0 17.3 0.2 25 9.5 NNE 9 11 5 6 1012.5 1012.1 0.0
22/05:30pm 25.1 21.2 -1.6 17 12.2 NNW 9 13 5 7 1012.3 1011.9 0.0
22/05:00pm 27.2 22.9 -1.7 15 13.4 NNE 11 17 6 9 1011.9 1011.5 0.0
22/04:30pm 28.7 23.9 -2.4 13 14.4 N 13 22 7 12 1012.0 1011.6 0.0
22/04:00pm 29.8 25.0 -2.6 12 15.0 NW 13 20 7 11 1012.1 1011.7 0.0
22/03:30pm 29.3 24.1 -3.0 12 14.8 NNW 15 24 8 13 1012.0 1011.6 0.0
22/03:00pm 30.0 25.2 -2.5 12 15.1 NNW 13 20 7 11 1012.4 1012.0 0.0
22/02:30pm 29.5 23.5 -2.9 12 14.9 NW 19 28 10 15 1012.6 1012.2 0.0
22/02:00pm 29.3 24.7 -4.2 11 15.1 NW 11 22 6 12 1012.8 1012.4 0.0
22/01:30pm 29.3 24.4 -3.0 12 14.8 NNW 13 20 7 11 1013.2 1012.9 0.0
22/01:00pm 28.2 23.1 -5.0 11 14.6 W 13 26 7 14 1013.6 1013.3 0.0
22/12:30pm 28.3 22.9 -4.9 11 14.6 WNW 15 22 8 12 1013.8 1013.5 0.0
22/12:00pm 27.9 23.1 -6.5 10 14.7 NW 11 19 6 10 1014.2 1013.9 0.0
22/11:30am 27.3 22.0 -3.5 13 13.8 WNW 15 24 8 13 1015.0 1014.6 0.0
22/11:00am 26.5 22.5 -5.2 12 13.7 S 7 13 4 7 1015.4 1015.1 0.0
22/10:30am 25.1 20.6 -3.3 15 12.5 NNW 11 15 6 8 1015.9 1015.6 0.0
22/10:00am 23.1 20.0 1.5 24 10.3 ENE 7 13 4 7 1016.3 1016.0 0.0
22/09:30am 20.2 17.2 0.6 27 9.0 SSE 6 11 3 6 1016.9 1016.6 0.0
22/09:00am 17.9 14.9 0.6 31 7.7 S 6 9 3 5 1017.1 1016.8 0.0
22/08:30am 16.0 12.5 -1.1 31 7.3 WSW 7 11 4 6 1017.3 1016.9 0.0
22/08:00am 13.6 9.6 -1.9 34 6.3 WSW 9 11 5 6 1017.3 1016.9 0.0
22/07:30am 11.4 8.1 0.2 46 4.7 SW 7 9 4 5 1017.0 1016.7 0.0
22/07:00am 8.0 6.1 0.7 60 3.0 CALM 0 0 0 0 1016.7 1016.4 0.0
22/06:30am 6.5 2.9 0.4 65 2.4 NW 9 11 5 6 1016.4 1016.1 0.0
22/06:00am 2.2 -1.4 -1.8 75 1.4 W 7 9 4 5 1016.1 1015.8 0.0
22/05:30am 4.0 0.9 -2.6 62 2.4 W 4 9 2 5 1015.7 1015.4 0.0
22/05:00am 4.3 0.3 -2.5 61 2.5 W 9 13 5 7 1015.5 1015.2 0.0
22/04:30am 4.1 0.5 -2.1 64 2.3 WSW 7 9 4 5 1015.0 1014.6 0.0
22/04:00am 4.6 1.2 -1.8 63 2.4 NNW 6 9 3 5 1014.9 1014.5 0.0
22/03:30am 4.2 0.8 -2.2 63 2.3 NNW 6 7 3 4 1014.9 1014.5 0.0
22/03:00am 4.4 0.3 -2.7 60 2.6 W 9 11 5 6 1015.0 1014.6 0.0
22/02:30am 4.7 0.9 -3.8 54 3.0 W 7 11 4 6 1015.2 1014.9 0.0
22/02:00am 5.9 2.3 -2.4 55 3.1 W 7 9 4 5 1015.4 1015.1 0.0
22/01:30am 7.1 3.1 -2.3 51 3.5 W 9 11 5 6 1015.7 1015.4 0.0
22/01:00am 6.6 2.5 -3.1 50 3.6 WSW 9 11 5 6 1016.0 1015.7 0.0
22/12:30am 8.0 3.5 -3.2 45 4.2 SW 11 13 6 7 1016.0 1015.7 0.0
22/12:00am 9.2 5.0 -3.7 40 4.8 SW 9 9 5 5 1015.9 1015.6 0.0
 
Date/Time
EST
Temp
°C
App
Temp
°C
Dew
Point
°C
Rel
Hum
%
Delta-T
°C
Wind Press
QNH
hPa
Press
MSL
hPa
Rain since
9am
mm
Dir  Spd
km/h
Gust
km/h
Spd
kts
Gust
kts
21/11:30pm 10.5 7.0 -2.5 40 5.1 WSW 6 7 3 4 1015.8 1015.5 0.0
21/11:00pm 13.2 10.4 -3.1 32 6.4 NW 2 6 1 3 1015.8 1015.5 0.0
21/10:30pm 13.7 9.5 -3.5 30 6.8 NW 9 13 5 7 1015.9 1015.6 0.0
21/10:00pm 14.4 9.5 -3.4 29 7.1 NW 13 15 7 8 1016.0 1015.7 0.0
21/09:30pm 13.6 8.3 -3.6 30 6.8 NW 15 15 8 8 1016.0 1015.7 0.0
21/09:00pm 14.7 9.0 -4.1 27 7.4 NW 17 17 9 9 1015.9 1015.6 0.0
21/08:30pm 18.0 12.3 -4.0 22 9.0 NNW 17 22 9 12 1015.7 1015.4 0.0
21/08:16pm 18.9 12.9 -2.7 23 9.1 NNW 19 24 10 13 1015.7 1015.4 0.0
21/08:00pm 13.8 8.9 -3.0 31 6.7 NNW 13 17 7 9 1015.7 1015.4 0.0
21/07:30pm 13.7 9.3 -2.7 32 6.6 W 11 17 6 9 1015.6 1015.3 0.0
21/07:00pm 14.8 10.3 -3.0 29 7.2 N 11 13 6 7 1015.1 1014.7 0.0
21/06:30pm 14.8 10.5 -1.7 32 6.8 N 11 15 6 8 1014.8 1014.4 0.0
21/06:00pm 17.3 13.0 -1.4 28 8.0 N 11 11 6 6 1014.3 1014.0 0.0
21/05:30pm 21.2 17.1 -3.3 19 10.5 N 9 11 5 6 1013.8 1013.5 0.0
21/05:00pm 24.9 20.3 -4.4 14 12.6 N 11 17 6 9 1013.7 1013.4 0.0
21/04:30pm 26.3 21.2 -5.3 12 13.6 WNW 13 17 7 9 1013.6 1013.3 0.0
21/04:00pm 26.7 21.6 -5.0 12 13.7 NNW 13 19 7 10 1013.6 1013.3 0.0
21/03:30pm 26.9 20.6 -6.0 11 14.0 NNW 19 28 10 15 1013.6 1013.3 0.0
21/03:00pm 27.5 21.1 -6.8 10 14.5 NW 19 24 10 13 1013.8 1013.5 0.0
21/02:30pm 27.1 20.6 -5.9 11 14.1 NW 20 32 11 17 1014.0 1013.7 0.0
21/02:00pm 27.5 21.6 -5.6 11 14.3 NW 17 26 9 14 1014.2 1013.9 0.0
21/01:30pm 27.5 21.6 -5.6 11 14.3 WNW 17 28 9 15 1014.7 1014.3 0.0
21/01:00pm 27.2 22.0 -5.8 11 14.2 WNW 13 24 7 13 1015.1 1014.7 0.0
21/12:30pm 26.4 22.2 -4.2 13 13.4 WNW 9 20 5 11 1015.6 1015.3 0.0
21/12:00pm 25.2 19.8 -4.2 14 12.8 WNW 15 22 8 12 1016.2 1015.9 0.0
21/11:30am 23.9 19.1 -2.6 17 11.7 W 13 20 7 11 1016.8 1016.5 0.0
21/11:00am 22.7 18.3 -2.1 19 11.0 NW 11 20 6 11 1017.4 1017.0 0.0
21/10:30am 20.7 17.2 -1.1 23 9.7 W 7 11 4 6 1017.9 1017.6 0.0
21/10:00am 19.0 15.5 -1.4 25 8.8 W 7 13 4 7 1018.2 1017.9 0.0
21/09:30am 17.0 13.5 -1.1 29 7.8 W 7 13 4 7 1018.4 1018.1 0.0
21/09:00am 15.0 11.5 -1.1 33 6.8 WSW 7 11 4 6 1018.4 1018.1 0.0
21/08:30am 12.6 9.1 -1.0 39 5.6 W 7 9 4 5 1018.7 1018.4 0.0
21/08:00am 10.3 7.0 0.3 50 4.1 WSW 7 9 4 5 1018.6 1018.3 0.0
21/07:30am 7.9 5.7 1.1 62 2.8 WSW 2 7 1 4 1018.4 1018.1 0.0
21/07:00am 4.4 1.3 0.2 74 1.6 WSW 6 7 3 4 1018.2 1017.9 0.0
21/06:30am 1.5 -0.7 -1.4 81 1.0 CALM 0 0 0 0 1018.0 1017.7 0.0
21/06:00am 1.4 -0.9 -2.5 75 1.4 CALM 0 0 0 0 1017.9 1017.6 0.0
21/05:30am 1.6 -0.6 -1.8 78 1.2 CALM 0 0 0 0 1017.8 1017.5 0.0
21/05:00am 2.5 -0.5 -2.2 71 1.7 NNW 4 7 2 4 1017.7 1017.4 0.0
21/04:30am 1.8 -1.7 -2.9 71 1.6 NW 6 7 3 4 1017.6 1017.3 0.0
21/04:00am 4.1 0.1 -2.1 64 2.3 W 9 11 5 6 1017.4 1017.0 0.0
21/03:30am 3.4 -0.1 -2.5 65 2.1 WSW 6 7 3 4 1017.3 1016.9 0.0
21/03:00am 3.4 -0.2 -2.1 67 2.0 W 7 9 4 5 1017.3 1016.9 0.0
21/02:30am 3.0 -0.6 -2.3 68 1.9 WNW 7 7 4 4 1017.4 1017.0 0.0
21/02:00am 3.5 -0.2 -2.7 64 2.2 WNW 7 9 4 5 1017.7 1017.4 0.0
21/01:30am 4.6 0.3 -1.6 64 2.3 WNW 11 13 6 7 1017.9 1017.6 0.0
21/01:00am 4.4 0.8 -2.0 63 2.3 WNW 7 9 4 5 1018.1 1017.8 0.0
21/12:30am 4.8 1.5 -1.6 63 2.4 W 6 9 3 5 1018.2 1017.9 0.0
21/12:00am 3.8 0.4 -2.2 65 2.2 WSW 6 7 3 4 1018.2 1017.9 0.0
 
Date/Time
EST
Temp
°C
App
Temp
°C
Dew
Point
°C
Rel
Hum
%
Delta-T
°C
Wind Press
QNH
hPa
Press
MSL
hPa
Rain since
9am
mm
Dir  Spd
km/h
Gust
km/h
Spd
kts
Gust
kts
20/11:30pm 5.0 2.8 -1.9 61 2.6 CALM 0 2 0 1 1018.3 1018.0 0.0
20/11:00pm 4.3 2.0 -2.5 61 2.5 CALM 0 0 0 0 1018.5 1018.2 0.0
20/10:30pm 5.8 1.9 -1.8 58 2.9 ESE 9 11 5 6 1018.6 1018.3 0.0
20/10:00pm 6.0 3.6 -2.8 53 3.2 CALM 0 0 0 0 1018.5 1018.2 0.0
20/09:30pm 7.5 3.8 -2.5 49 3.8 WNW 7 9 4 5 1018.5 1018.2 0.0
20/09:00pm 7.0 3.6 -1.7 54 3.3 NNE 6 7 3 4 1018.4 1018.1 0.0
20/08:30pm 7.4 3.9 -1.5 53 3.4 NE 7 9 4 5 1018.3 1018.0 0.0
20/08:00pm 8.9 6.2 0.1 54 3.6 NNW 4 7 2 4 1018.2 1017.9 0.0
20/07:30pm 9.8 5.9 -1.3 46 4.4 N 9 11 5 6 1017.9 1017.6 0.0
20/07:00pm 9.1 5.7 -0.5 51 3.9 N 7 9 4 5 1017.8 1017.5 0.0
20/06:30pm 11.6 9.5 -0.5 43 5.0 CALM 0 0 0 0 1017.4 1017.0 0.0
20/06:00pm 14.3 11.1 0.6 39 5.9 NE 7 7 4 4 1017.0 1016.7 0.0
20/05:30pm 17.7 14.4 -1.5 27 8.2 NE 6 9 3 5 1016.8 1016.5 0.0
20/05:00pm 19.6 15.9 -3.3 21 9.6 NNE 7 9 4 5 1016.7 1016.4 0.0
20/04:30pm 20.9 17.3 -3.6 19 10.4 N 6 9 3 5 1016.6 1016.3 0.0
20/04:00pm 20.5 16.9 -3.9 19 10.2 NW 6 9 3 5 1016.6 1016.3 0.0
20/03:30pm 20.7 16.6 -3.0 20 10.1 NE 9 11 5 6 1016.5 1016.2 0.0
20/03:00pm 20.3 16.7 -3.4 20 10.0 ENE 6 9 3 5 1016.7 1016.4 0.0
20/02:30pm 20.7 17.1 -2.4 21 10.0 SW 7 11 4 6 1017.1 1016.8 0.0
20/02:00pm 19.9 15.8 -3.0 21 9.7 SSW 9 15 5 8 1017.5 1017.2 0.0

Other Formats:

Comma delimited format used in spreadsheet applications
http://www.bom.gov.au/fwo/IDN60801/IDN60801.95754.axf

JavaScript Object Notation format (JSON) in row-major order
http://www.bom.gov.au/fwo/IDN60801/IDN60801.95754.json